Time;durP1;ratioP1;P1;durP2;ratioP2;P2;SDS_P1;SDS_P2;PMS_P1;PMS_P2;Temp;Humidity;BMP_temperature;BMP_pressure;BME280_temperature;BME280_humidity;BME280_pressure;Samples;Min_cycle;Max_cycle;Signal;HPM_P1;HPM_P2
2024/01/18 00:00:22;;;;;;;396.87;160.03;;;;;;;;;;4987755;28;20223;-67
2024/01/18 00:02:48;;;;;;;417.80;170.30;;;;;;;;;;4981722;28;20568;-67
2024/01/18 00:05:14;;;;;;;406.80;167.00;;;;;;;;;;4986217;28;20259;-67
2024/01/18 00:07:40;;;;;;;411.90;165.43;;;;;;;;;;4984811;28;20185;-67
2024/01/18 00:10:06;;;;;;;375.20;149.73;;;;;;;;;;4982969;28;20331;-67
2024/01/18 00:12:35;;;;;;;412.83;163.97;;;;;;;;;;4983548;28;20224;-67
2024/01/18 00:15:01;;;;;;;387.83;157.70;;;;;;;;;;4987491;28;20228;-67
2024/01/18 00:17:27;;;;;;;367.47;149.57;;;;;;;;;;4982415;28;20220;-67
2024/01/18 00:19:52;;;;;;;408.70;161.70;;;;;;;;;;4980051;28;20694;-67
2024/01/18 00:22:18;;;;;;;366.37;148.83;;;;;;;;;;4983610;28;20227;-67
2024/01/18 00:24:44;;;;;;;405.30;163.10;;;;;;;;;;4983950;28;20214;-67
2024/01/18 00:27:10;;;;;;;388.30;156.57;;;;;;;;;;4983601;28;20536;-66
2024/01/18 00:29:36;;;;;;;418.70;167.77;;;;;;;;;;4984247;28;20664;-67
2024/01/18 00:32:02;;;;;;;428.83;173.27;;;;;;;;;;4987156;28;20231;-67
2024/01/18 00:34:28;;;;;;;415.97;170.47;;;;;;;;;;4981521;28;20251;-66
2024/01/18 00:36:54;;;;;;;360.23;148.67;;;;;;;;;;4985096;28;20260;-67
2024/01/18 00:39:21;;;;;;;409.00;164.70;;;;;;;;;;4988774;28;20208;-67
2024/01/18 00:41:47;;;;;;;432.40;170.63;;;;;;;;;;4985144;28;20213;-67
2024/01/18 00:44:13;;;;;;;396.03;158.20;;;;;;;;;;4988474;28;20283;-67
2024/01/18 00:46:39;;;;;;;495.10;202.27;;;;;;;;;;4985372;28;20663;-67
2024/01/18 00:49:05;;;;;;;414.10;168.43;;;;;;;;;;4983492;28;20311;-67
2024/01/18 00:51:31;;;;;;;368.37;148.93;;;;;;;;;;4988255;28;20892;-67
2024/01/18 00:53:57;;;;;;;361.07;146.43;;;;;;;;;;4985379;28;20230;-67
2024/01/18 00:56:23;;;;;;;382.67;156.17;;;;;;;;;;4990177;28;20276;-67
2024/01/18 00:58:49;;;;;;;419.00;170.83;;;;;;;;;;4986356;28;20269;-68
2024/01/18 01:01:15;;;;;;;423.20;167.53;;;;;;;;;;4983123;28;20255;-67
2024/01/18 01:03:41;;;;;;;420.90;167.87;;;;;;;;;;4987514;28;20266;-66
2024/01/18 01:06:10;;;;;;;373.13;150.33;;;;;;;;;;4988699;28;20225;-67
2024/01/18 01:08:36;;;;;;;447.13;181.80;;;;;;;;;;4982827;28;20213;-66
2024/01/18 01:11:05;;;;;;;368.57;149.73;;;;;;;;;;4987837;28;20201;-67
2024/01/18 01:13:31;;;;;;;355.23;145.60;;;;;;;;;;4987920;28;20873;-67
2024/01/18 01:15:57;;;;;;;388.60;159.03;;;;;;;;;;4988786;28;20226;-67
2024/01/18 01:18:22;;;;;;;366.60;149.37;;;;;;;;;;4988362;28;20219;-67
2024/01/18 01:20:48;;;;;;;445.07;177.90;;;;;;;;;;4985834;28;20352;-67
2024/01/18 01:23:15;;;;;;;377.77;155.90;;;;;;;;;;4991275;28;20607;-67
2024/01/18 01:25:41;;;;;;;379.17;153.80;;;;;;;;;;4982054;28;20280;-67
2024/01/18 01:28:07;;;;;;;372.33;150.17;;;;;;;;;;4985319;28;20879;-67
2024/01/18 01:30:33;;;;;;;414.03;165.57;;;;;;;;;;4988839;28;20224;-67
2024/01/18 01:32:59;;;;;;;387.37;155.30;;;;;;;;;;4983059;28;20742;-67
2024/01/18 01:35:24;;;;;;;409.60;165.33;;;;;;;;;;4982524;28;20307;-66
2024/01/18 01:37:50;;;;;;;451.40;181.33;;;;;;;;;;4977964;28;20204;-67
2024/01/18 01:40:16;;;;;;;442.13;181.10;;;;;;;;;;4978835;28;20300;-67
2024/01/18 01:42:42;;;;;;;410.37;173.53;;;;;;;;;;4987682;28;20583;-67
2024/01/18 01:45:08;;;;;;;408.77;168.97;;;;;;;;;;4979459;28;20223;-67
2024/01/18 01:47:34;;;;;;;343.20;140.10;;;;;;;;;;4985214;28;20239;-67
2024/01/18 01:50:01;;;;;;;424.53;176.63;;;;;;;;;;4978842;28;20227;-67
2024/01/18 01:52:28;;;;;;;366.63;149.23;;;;;;;;;;4986672;28;20203;-67
2024/01/18 01:54:54;;;;;;;438.00;177.67;;;;;;;;;;4982957;28;20289;-67
2024/01/18 01:57:21;;;;;;;383.47;155.33;;;;;;;;;;4985624;28;20231;-67
2024/01/18 01:59:47;;;;;;;424.60;170.53;;;;;;;;;;4985524;28;20224;-67
2024/01/18 02:02:13;;;;;;;528.57;208.70;;;;;;;;;;4978529;28;20203;-66
2024/01/18 02:04:40;;;;;;;382.97;153.50;;;;;;;;;;4983460;28;20196;-67
2024/01/18 02:07:07;;;;;;;371.93;153.03;;;;;;;;;;4988753;28;20730;-67
2024/01/18 02:09:33;;;;;;;362.87;151.13;;;;;;;;;;4983816;28;21128;-66
2024/01/18 02:11:59;;;;;;;362.20;146.23;;;;;;;;;;4987425;28;20225;-66
2024/01/18 02:14:27;;;;;;;404.10;162.93;;;;;;;;;;4987464;28;20216;-67
2024/01/18 02:16:52;;;;;;;429.30;173.23;;;;;;;;;;4983298;28;20586;-66
2024/01/18 02:19:18;;;;;;;418.93;171.83;;;;;;;;;;4985490;28;20228;-67
2024/01/18 02:21:44;;;;;;;412.47;166.37;;;;;;;;;;4988731;28;20216;-67
2024/01/18 02:24:13;;;;;;;373.50;153.43;;;;;;;;;;4985456;28;20283;-67
2024/01/18 02:26:39;;;;;;;464.13;194.00;;;;;;;;;;4977803;28;20252;-66
2024/01/18 02:29:05;;;;;;;387.23;154.13;;;;;;;;;;4990388;28;20223;-67
2024/01/18 02:31:31;;;;;;;387.47;158.03;;;;;;;;;;4985902;28;20412;-67
2024/01/18 02:33:57;;;;;;;400.47;166.73;;;;;;;;;;4983967;28;20794;-67
2024/01/18 02:36:24;;;;;;;443.47;176.77;;;;;;;;;;4984968;28;20330;-67
2024/01/18 02:38:50;;;;;;;432.07;172.13;;;;;;;;;;4982773;28;20209;-67
2024/01/18 02:41:16;;;;;;;413.40;169.30;;;;;;;;;;4990108;28;22035;-67
2024/01/18 02:43:42;;;;;;;379.23;155.13;;;;;;;;;;4987958;28;20694;-67
2024/01/18 02:46:08;;;;;;;441.70;179.47;;;;;;;;;;4978521;28;20350;-66
2024/01/18 02:48:34;;;;;;;360.83;147.83;;;;;;;;;;4988178;28;20282;-67
2024/01/18 02:51:00;;;;;;;442.93;176.87;;;;;;;;;;4978046;28;20212;-66
2024/01/18 02:53:26;;;;;;;408.20;166.10;;;;;;;;;;4982523;28;20235;-66
2024/01/18 02:55:52;;;;;;;399.47;160.97;;;;;;;;;;4984883;28;20209;-67
2024/01/18 02:58:18;;;;;;;356.07;145.87;;;;;;;;;;4984439;28;20732;-67
2024/01/18 03:00:44;;;;;;;377.60;153.90;;;;;;;;;;4988737;28;20248;-67
2024/01/18 03:03:10;;;;;;;401.17;158.77;;;;;;;;;;4987485;28;20303;-66
2024/01/18 03:05:36;;;;;;;400.07;158.47;;;;;;;;;;4984529;28;20295;-67
2024/01/18 03:08:02;;;;;;;431.97;180.17;;;;;;;;;;4989273;28;20733;-66
2024/01/18 03:10:27;;;;;;;422.23;174.17;;;;;;;;;;4983513;28;20195;-67
2024/01/18 03:12:53;;;;;;;422.30;170.60;;;;;;;;;;4985931;28;20220;-67
2024/01/18 03:15:19;;;;;;;390.10;158.70;;;;;;;;;;4980208;28;20541;-67
2024/01/18 03:17:45;;;;;;;382.17;158.87;;;;;;;;;;4987382;28;20216;-66
2024/01/18 03:20:11;;;;;;;418.53;171.30;;;;;;;;;;4988172;28;20177;-66
2024/01/18 03:22:40;;;;;;;362.27;147.87;;;;;;;;;;4984644;28;20198;-67
2024/01/18 03:25:07;;;;;;;385.20;156.53;;;;;;;;;;4982858;28;20225;-66
2024/01/18 03:27:32;;;;;;;391.00;159.70;;;;;;;;;;4985935;28;20255;-66
2024/01/18 03:29:58;;;;;;;428.00;172.30;;;;;;;;;;4987957;28;20307;-66
2024/01/18 03:32:24;;;;;;;409.07;161.93;;;;;;;;;;4985056;28;20256;-67
2024/01/18 03:34:50;;;;;;;411.30;165.43;;;;;;;;;;4985448;28;20238;-67
2024/01/18 03:37:16;;;;;;;427.47;174.97;;;;;;;;;;4981408;28;20854;-66
2024/01/18 03:39:43;;;;;;;362.00;152.43;;;;;;;;;;4984267;28;20568;-67
2024/01/18 03:42:09;;;;;;;378.80;156.73;;;;;;;;;;4985438;28;20213;-67
2024/01/18 03:44:35;;;;;;;424.73;173.90;;;;;;;;;;4979336;28;20254;-67
2024/01/18 03:47:01;;;;;;;381.37;156.67;;;;;;;;;;4984544;28;20221;-67
2024/01/18 03:49:27;;;;;;;392.77;158.87;;;;;;;;;;4986642;28;20612;-66
2024/01/18 03:51:53;;;;;;;410.87;164.43;;;;;;;;;;4986490;28;20223;-67
2024/01/18 03:54:20;;;;;;;382.40;155.00;;;;;;;;;;4987104;28;20216;-66
2024/01/18 03:56:46;;;;;;;368.97;147.97;;;;;;;;;;4978414;28;20213;-65
2024/01/18 03:59:15;;;;;;;385.53;153.57;;;;;;;;;;4974542;28;20199;-66
2024/01/18 04:01:41;;;;;;;358.10;148.13;;;;;;;;;;4998371;28;20203;-66
2024/01/18 04:04:10;;;;;;;419.57;169.83;;;;;;;;;;4985611;28;20232;-66
2024/01/18 04:06:36;;;;;;;439.23;184.70;;;;;;;;;;4988956;28;20221;-66
2024/01/18 04:09:02;;;;;;;411.50;167.80;;;;;;;;;;4991693;28;20238;-66
2024/01/18 04:11:28;;;;;;;387.20;161.17;;;;;;;;;;4988282;28;20241;-67
2024/01/18 04:13:54;;;;;;;444.43;181.43;;;;;;;;;;4983655;28;20667;-66
2024/01/18 04:16:20;;;;;;;366.33;149.27;;;;;;;;;;4983821;28;20231;-67
2024/01/18 04:18:46;;;;;;;386.77;158.50;;;;;;;;;;4986395;28;20216;-67
2024/01/18 04:21:13;;;;;;;393.03;161.13;;;;;;;;;;4985008;28;20221;-67
2024/01/18 04:23:39;;;;;;;432.60;173.17;;;;;;;;;;4983495;28;22742;-67
2024/01/18 04:26:05;;;;;;;436.20;177.97;;;;;;;;;;4989372;28;20324;-66
2024/01/18 04:28:31;;;;;;;405.10;166.90;;;;;;;;;;4989561;28;20273;-67
2024/01/18 04:30:57;;;;;;;433.43;178.50;;;;;;;;;;4984032;28;20241;-67
2024/01/18 04:33:23;;;;;;;405.23;163.90;;;;;;;;;;4991180;28;20263;-66
2024/01/18 04:35:49;;;;;;;397.97;163.73;;;;;;;;;;4990293;28;20743;-67
2024/01/18 04:38:15;;;;;;;358.03;147.50;;;;;;;;;;4986878;28;20279;-67
2024/01/18 04:40:41;;;;;;;390.37;158.67;;;;;;;;;;4991089;28;20189;-66
2024/01/18 04:43:07;;;;;;;405.10;161.63;;;;;;;;;;4988967;28;20651;-67
2024/01/18 04:45:33;;;;;;;370.73;156.13;;;;;;;;;;4987065;28;20224;-66
2024/01/18 04:47:59;;;;;;;401.77;164.40;;;;;;;;;;4987812;28;20221;-66
2024/01/18 04:50:25;;;;;;;415.30;164.93;;;;;;;;;;4988786;28;20224;-67
2024/01/18 04:52:51;;;;;;;403.70;164.17;;;;;;;;;;4984072;28;20208;-67
2024/01/18 04:55:18;;;;;;;439.53;180.43;;;;;;;;;;4985166;28;20216;-67
2024/01/18 04:57:44;;;;;;;376.70;156.50;;;;;;;;;;4991582;28;20703;-67
2024/01/18 05:00:10;;;;;;;432.40;172.33;;;;;;;;;;4980152;28;20255;-67
2024/01/18 05:02:37;;;;;;;371.40;150.97;;;;;;;;;;4989666;28;20648;-67
2024/01/18 05:05:03;;;;;;;455.23;184.97;;;;;;;;;;4990376;28;20655;-67
2024/01/18 05:07:29;;;;;;;394.17;156.83;;;;;;;;;;4985862;28;20201;-66
2024/01/18 05:09:55;;;;;;;416.43;165.17;;;;;;;;;;4986534;28;20208;-66
2024/01/18 05:12:21;;;;;;;363.13;150.63;;;;;;;;;;4990196;28;20251;-67
2024/01/18 05:14:46;;;;;;;372.07;154.57;;;;;;;;;;4985947;28;20208;-67
2024/01/18 05:17:13;;;;;;;365.57;151.43;;;;;;;;;;4985946;28;20444;-67
2024/01/18 05:19:39;;;;;;;395.60;162.67;;;;;;;;;;4985224;28;20191;-67
2024/01/18 05:22:05;;;;;;;417.97;169.83;;;;;;;;;;4970683;28;20234;-66
2024/01/18 05:24:31;;;;;;;376.20;154.87;;;;;;;;;;4981107;28;20342;-66
2024/01/18 05:26:57;;;;;;;380.77;158.97;;;;;;;;;;4985380;28;20399;-67
2024/01/18 05:29:23;;;;;;;364.97;149.40;;;;;;;;;;4984127;28;20212;-67
2024/01/18 05:31:49;;;;;;;401.13;162.83;;;;;;;;;;4985974;28;20261;-67
2024/01/18 05:34:15;;;;;;;391.67;158.87;;;;;;;;;;4985145;28;20243;-67
2024/01/18 05:36:41;;;;;;;418.60;172.60;;;;;;;;;;4988691;28;20213;-66
2024/01/18 05:39:07;;;;;;;450.17;183.20;;;;;;;;;;4980642;28;20216;-67
2024/01/18 05:41:33;;;;;;;402.03;163.93;;;;;;;;;;4984537;28;20227;-67
2024/01/18 05:43:59;;;;;;;413.97;166.03;;;;;;;;;;4987197;28;20209;-67
2024/01/18 05:46:26;;;;;;;365.63;149.07;;;;;;;;;;4986423;28;20220;-67
2024/01/18 05:48:51;;;;;;;386.50;160.40;;;;;;;;;;4985609;28;20300;-66
2024/01/18 05:51:18;;;;;;;377.77;158.07;;;;;;;;;;4986427;28;20281;-66
2024/01/18 05:53:45;;;;;;;419.57;168.30;;;;;;;;;;4973359;28;20312;-66
2024/01/18 05:56:11;;;;;;;426.33;170.80;;;;;;;;;;4984478;28;20184;-67
2024/01/18 05:58:36;;;;;;;430.17;174.53;;;;;;;;;;4977031;28;20730;-67
2024/01/18 06:01:02;;;;;;;398.90;162.27;;;;;;;;;;4986863;28;20235;-67
2024/01/18 06:03:29;;;;;;;424.33;173.23;;;;;;;;;;4988220;28;20712;-67
2024/01/18 06:05:57;;;;;;;414.63;172.17;;;;;;;;;;4982602;28;20217;-66
2024/01/18 06:08:23;;;;;;;405.17;166.70;;;;;;;;;;4978189;28;20258;-68
2024/01/18 06:10:49;;;;;;;406.33;163.53;;;;;;;;;;4985766;28;20285;-72
2024/01/18 06:13:15;;;;;;;402.10;163.80;;;;;;;;;;4991637;28;20224;-69
2024/01/18 06:15:41;;;;;;;360.43;148.43;;;;;;;;;;5006768;28;20278;-67
2024/01/18 06:18:07;;;;;;;362.73;149.13;;;;;;;;;;5000113;28;20275;-67
2024/01/18 06:20:33;;;;;;;376.43;156.33;;;;;;;;;;5006714;28;20295;-68
2024/01/18 06:23:00;;;;;;;337.57;144.77;;;;;;;;;;5010920;28;20201;-68
2024/01/18 06:25:26;;;;;;;328.77;139.07;;;;;;;;;;5011289;28;20748;-68
2024/01/18 06:27:52;;;;;;;360.50;154.23;;;;;;;;;;5005009;28;20316;-68
2024/01/18 06:30:18;;;;;;;341.43;141.20;;;;;;;;;;5000502;28;20286;-68
2024/01/18 06:32:44;;;;;;;369.63;153.07;;;;;;;;;;5003232;28;20307;-68
2024/01/18 06:35:10;;;;;;;383.07;162.07;;;;;;;;;;5000192;28;20185;-68
2024/01/18 06:37:37;;;;;;;422.03;173.37;;;;;;;;;;4992159;28;20188;-67
2024/01/18 06:40:03;;;;;;;453.53;182.20;;;;;;;;;;4982825;28;20224;-67
2024/01/18 06:42:29;;;;;;;433.07;176.27;;;;;;;;;;4983590;28;20228;-67
2024/01/18 06:44:55;;;;;;;451.43;182.67;;;;;;;;;;4970187;28;21052;-66
2024/01/18 06:47:21;;;;;;;381.60;158.70;;;;;;;;;;4977932;28;20232;-66
2024/01/18 06:49:46;;;;;;;390.53;162.30;;;;;;;;;;4978686;28;20659;-63
2024/01/18 06:52:13;;;;;;;412.37;171.40;;;;;;;;;;4985819;28;20221;-63
2024/01/18 06:54:39;;;;;;;374.47;156.43;;;;;;;;;;4986934;28;20279;-64
2024/01/18 06:57:05;;;;;;;382.50;159.93;;;;;;;;;;4987917;28;20223;-65
2024/01/18 06:59:31;;;;;;;376.30;161.70;;;;;;;;;;4993475;28;20220;-65
2024/01/18 07:01:58;;;;;;;372.47;152.70;;;;;;;;;;4993284;28;20197;-65
2024/01/18 07:04:24;;;;;;;360.57;148.50;;;;;;;;;;4993129;28;20212;-65
2024/01/18 07:06:50;;;;;;;486.77;195.17;;;;;;;;;;4980198;28;20233;-67
2024/01/18 07:09:16;;;;;;;427.27;173.17;;;;;;;;;;4981960;28;20306;-65
2024/01/18 07:11:42;;;;;;;392.07;164.87;;;;;;;;;;4988802;28;20303;-65
2024/01/18 07:14:08;;;;;;;389.77;165.13;;;;;;;;;;4984150;28;20640;-64
2024/01/18 07:16:34;;;;;;;467.03;197.40;;;;;;;;;;4963761;28;20185;-67
2024/01/18 07:19:00;;;;;;;417.90;170.37;;;;;;;;;;4986171;28;20220;-66
2024/01/18 07:21:26;;;;;;;516.40;208.97;;;;;;;;;;4980719;28;21869;-66
2024/01/18 07:23:52;;;;;;;425.63;171.20;;;;;;;;;;4976061;28;20756;-66
2024/01/18 07:26:19;;;;;;;458.47;186.47;;;;;;;;;;4981334;28;20201;-66
2024/01/18 07:28:45;;;;;;;396.97;163.27;;;;;;;;;;4984220;28;20212;-67
2024/01/18 07:31:11;;;;;;;469.13;189.57;;;;;;;;;;4970461;28;20319;-67
2024/01/18 07:33:37;;;;;;;371.53;151.73;;;;;;;;;;4984034;28;20217;-67
2024/01/18 07:36:03;;;;;;;446.00;177.00;;;;;;;;;;4985370;28;20322;-68
2024/01/18 07:38:29;;;;;;;434.73;175.33;;;;;;;;;;4977335;28;20225;-68
2024/01/18 07:40:55;;;;;;;500.13;201.17;;;;;;;;;;4984989;28;20196;-67
2024/01/18 07:43:21;;;;;;;397.23;159.63;;;;;;;;;;4983115;28;20679;-68
2024/01/18 07:45:47;;;;;;;440.67;173.73;;;;;;;;;;4982127;28;20854;-68
2024/01/18 07:48:13;;;;;;;415.47;168.53;;;;;;;;;;4986172;28;20205;-68
2024/01/18 07:50:39;;;;;;;385.50;157.83;;;;;;;;;;4986436;28;20230;-68
2024/01/18 07:53:05;;;;;;;466.07;188.33;;;;;;;;;;4974385;28;20720;-68
2024/01/18 07:55:31;;;;;;;419.87;169.83;;;;;;;;;;4984307;28;20196;-65
2024/01/18 07:57:57;;;;;;;404.37;164.43;;;;;;;;;;4986610;28;20268;-66
2024/01/18 08:00:23;;;;;;;416.57;165.27;;;;;;;;;;4988630;28;20250;-66
2024/01/18 08:02:49;;;;;;;392.90;158.47;;;;;;;;;;5000049;28;20590;-66
2024/01/18 08:05:15;;;;;;;411.43;165.53;;;;;;;;;;4992436;28;20931;-66
2024/01/18 08:07:41;;;;;;;393.50;162.20;;;;;;;;;;4983507;28;20678;-69
2024/01/18 08:10:10;;;;;;;421.40;168.27;;;;;;;;;;4975997;28;20221;-68
2024/01/18 08:12:37;;;;;;;394.90;160.87;;;;;;;;;;4978884;28;22854;-68
2024/01/18 08:15:03;;;;;;;428.90;173.07;;;;;;;;;;4984182;28;20255;-67
2024/01/18 08:17:29;;;;;;;452.43;181.77;;;;;;;;;;4972030;28;20220;-68
2024/01/18 08:19:55;;;;;;;462.03;188.30;;;;;;;;;;4985463;28;20302;-67
2024/01/18 08:22:21;;;;;;;405.87;163.50;;;;;;;;;;4979060;28;20666;-69
2024/01/18 08:24:47;;;;;;;424.93;169.67;;;;;;;;;;4967033;28;20236;-69
2024/01/18 08:27:13;;;;;;;480.93;197.67;;;;;;;;;;4975973;28;20216;-68
2024/01/18 08:29:39;;;;;;;443.83;179.80;;;;;;;;;;4971413;28;20255;-69
2024/01/18 08:32:06;;;;;;;422.73;172.20;;;;;;;;;;4979136;28;20189;-69
2024/01/18 08:34:32;;;;;;;428.23;173.60;;;;;;;;;;4976621;28;20220;-68
2024/01/18 08:36:58;;;;;;;481.13;192.47;;;;;;;;;;4977344;28;20205;-68
2024/01/18 08:39:24;;;;;;;440.10;176.73;;;;;;;;;;4982722;28;20220;-67
2024/01/18 08:41:50;;;;;;;469.87;187.53;;;;;;;;;;4969622;28;20243;-67
2024/01/18 08:44:16;;;;;;;402.10;153.87;;;;;;;;;;5020418;23;20710;-50
2024/01/18 08:46:42;;;;;;;434.43;176.57;;;;;;;;;;5000323;28;20614;-50
2024/01/18 08:49:08;;;;;;;378.07;139.07;;;;;;;;;;4995381;28;20223;-50
2024/01/18 08:51:34;;;;;;;426.87;169.50;;;;;;;;;;4997103;28;20279;-50
2024/01/18 08:54:00;;;;;;;387.87;149.50;;;;;;;;;;5005145;28;20629;-50
2024/01/18 08:56:26;;;;;;;412.27;161.53;;;;;;;;;;5003470;28;20608;-56
2024/01/18 08:58:52;;;;;;;370.07;139.80;;;;;;;;;;5002133;28;20558;-55
2024/01/18 09:01:18;;;;;;;415.60;161.17;;;;;;;;;;5002650;28;20504;-55
2024/01/18 09:03:44;;;;;;;380.33;142.73;;;;;;;;;;5003993;28;20303;-55
2024/01/18 09:06:10;;;;;;;406.13;159.93;;;;;;;;;;5006132;28;20318;-56
2024/01/18 09:08:36;;;;;;;373.70;142.90;;;;;;;;;;5002221;28;20762;-54
2024/01/18 09:11:02;;;;;;;420.13;162.37;;;;;;;;;;4998644;28;20188;-55
2024/01/18 09:13:27;;;;;;;409.80;159.43;;;;;;;;;;4990914;28;20196;-55
2024/01/18 09:15:53;;;;;;;431.73;170.80;;;;;;;;;;5003494;28;20990;-54
2024/01/18 09:18:19;;;;;;;385.30;148.47;;;;;;;;;;5012065;28;20771;-55
2024/01/18 09:20:45;;;;;;;358.23;132.53;;;;;;;;;;5003944;28;20304;-55
2024/01/18 09:23:12;;;;;;;385.87;147.40;;;;;;;;;;5002002;28;20227;-57
2024/01/18 09:25:38;;;;;;;426.10;167.87;;;;;;;;;;5000988;28;20220;-55
2024/01/18 09:28:07;;;;;;;423.93;166.83;;;;;;;;;;4999956;28;20627;-55
2024/01/18 09:30:34;;;;;;;397.77;150.57;;;;;;;;;;5006693;28;20220;-56
2024/01/18 09:33:00;;;;;;;379.60;146.90;;;;;;;;;;5003278;28;20227;-56
2024/01/18 09:35:26;;;;;;;421.67;165.07;;;;;;;;;;4996245;28;20213;-56
2024/01/18 09:37:52;;;;;;;396.00;151.33;;;;;;;;;;4992475;28;20208;-55
2024/01/18 09:40:18;;;;;;;413.30;161.27;;;;;;;;;;5000695;28;20213;-56
2024/01/18 09:42:48;;;;;;;369.50;138.43;;;;;;;;;;5008413;28;20219;-55
2024/01/18 09:45:15;;;;;;;418.30;164.53;;;;;;;;;;5008969;28;20800;-57
2024/01/18 09:47:45;;;;;;;422.63;162.10;;;;;;;;;;5000178;28;20786;-56
2024/01/18 09:50:11;;;;;;;425.63;164.47;;;;;;;;;;5006896;28;20188;-56
2024/01/18 09:52:37;;;;;;;375.53;144.70;;;;;;;;;;5006716;28;20197;-55
2024/01/18 09:55:04;;;;;;;401.97;150.97;;;;;;;;;;5003369;28;20236;-56
2024/01/18 09:57:33;;;;;;;458.43;180.43;;;;;;;;;;4991872;28;20216;-56
2024/01/18 10:00:03;;;;;;;425.87;162.63;;;;;;;;;;4999050;28;20223;-55
2024/01/18 10:02:29;;;;;;;421.97;165.30;;;;;;;;;;4999657;28;20271;-55
2024/01/18 10:04:58;;;;;;;383.40;145.30;;;;;;;;;;4999589;28;20271;-55
2024/01/18 10:07:24;;;;;;;413.87;166.90;;;;;;;;;;4993714;28;20266;-56
2024/01/18 10:09:50;;;;;;;414.03;160.77;;;;;;;;;;4998961;28;20249;-55
2024/01/18 10:12:16;;;;;;;443.47;178.37;;;;;;;;;;4994114;28;20219;-56
2024/01/18 10:14:43;;;;;;;376.93;141.47;;;;;;;;;;5002959;28;20209;-56
2024/01/18 10:17:10;;;;;;;389.20;146.87;;;;;;;;;;5005627;28;20228;-56
2024/01/18 10:19:36;;;;;;;435.97;168.90;;;;;;;;;;5001233;28;20189;-56
2024/01/18 10:22:02;;;;;;;372.93;142.70;;;;;;;;;;5002453;28;20227;-56
2024/01/18 10:24:28;;;;;;;458.93;182.40;;;;;;;;;;5001778;28;20646;-56
2024/01/18 10:27:04;;;;;;;391.50;148.17;;;;;;;;;;5000794;28;20231;-55
2024/01/18 10:29:36;;;;;;;418.47;161.47;;;;;;;;;;5000755;28;20216;-55
2024/01/18 10:32:03;;;;;;;447.27;177.20;;;;;;;;;;5007691;28;20891;-55
2024/01/18 10:34:30;;;;;;;458.43;177.50;;;;;;;;;;4995429;28;20185;-56
2024/01/18 10:42:23;;;;;;;469.73;173.33;;;;;;;;;;5049887;27;20620;-56
2024/01/18 10:44:51;;;;;;;429.83;155.77;;;;;;;;;;5003982;28;20221;-54
2024/01/18 10:47:17;;;;;;;427.33;158.40;;;;;;;;;;4999747;28;20287;-55
2024/01/18 10:49:44;;;;;;;433.93;159.57;;;;;;;;;;4984748;28;20276;-54
2024/01/18 10:52:11;;;;;;;436.40;157.27;;;;;;;;;;4993383;28;20233;-55
2024/01/18 10:54:38;;;;;;;420.23;161.93;;;;;;;;;;4991484;28;20617;-56
2024/01/18 10:57:04;;;;;;;403.60;150.47;;;;;;;;;;4995687;28;20581;-56
2024/01/18 10:59:31;;;;;;;488.50;201.80;;;;;;;;;;4995492;28;20220;-56
2024/01/18 11:01:59;;;;;;;422.90;165.63;;;;;;;;;;4998596;28;20216;-55
2024/01/18 11:04:26;;;;;;;466.23;175.03;;;;;;;;;;5018923;28;20216;-55
2024/01/18 11:06:52;;;;;;;439.97;164.23;;;;;;;;;;5012991;28;20993;-56
2024/01/18 11:09:19;;;;;;;450.03;171.17;;;;;;;;;;5014782;28;20318;-55
2024/01/18 11:11:45;;;;;;;385.70;144.33;;;;;;;;;;5025326;28;20214;-55
2024/01/18 11:14:12;;;;;;;390.27;146.20;;;;;;;;;;5021480;28;20181;-55
2024/01/18 11:16:39;;;;;;;433.13;165.77;;;;;;;;;;5021723;28;20177;-55
2024/01/18 11:19:04;;;;;;;397.60;148.23;;;;;;;;;;5017245;28;20224;-55
2024/01/18 11:21:43;;;;;;;461.33;175.83;;;;;;;;;;5015479;28;20309;-56
2024/01/18 11:24:10;;;;;;;394.17;143.43;;;;;;;;;;5014014;28;20607;-56
2024/01/18 11:26:36;;;;;;;442.17;171.23;;;;;;;;;;5011493;28;20215;-56
2024/01/18 11:29:15;;;;;;;434.07;164.57;;;;;;;;;;5010547;28;20208;-56
2024/01/18 11:31:50;;;;;;;433.30;164.10;;;;;;;;;;5023688;28;20180;-54
2024/01/18 11:34:30;;;;;;;412.00;155.20;;;;;;;;;;5014505;28;20394;-55
2024/01/18 11:37:15;;;;;;;454.87;171.00;;;;;;;;;;5003478;28;20282;-55
2024/01/18 11:39:47;;;;;;;390.83;145.27;;;;;;;;;;5016302;28;20209;-55
2024/01/18 11:42:20;;;;;;;390.80;142.50;;;;;;;;;;5016295;28;20502;-55
2024/01/18 11:45:07;;;;;;;433.03;166.87;;;;;;;;;;5021436;28;20226;-55
2024/01/18 11:47:34;;;;;;;404.50;152.43;;;;;;;;;;5021148;28;20227;-55
2024/01/18 11:50:05;;;;;;;384.53;141.33;;;;;;;;;;5013067;28;20179;-55
2024/01/18 11:52:31;;;;;;;404.13;150.60;;;;;;;;;;5014567;28;20257;-55
2024/01/18 11:54:59;;;;;;;461.07;171.97;;;;;;;;;;4997347;28;20951;-55
2024/01/18 11:57:25;;;;;;;444.63;168.60;;;;;;;;;;5004270;28;20225;-55
2024/01/18 11:59:51;;;;;;;456.87;180.47;;;;;;;;;;5008608;28;20741;-55
2024/01/18 12:02:17;;;;;;;452.53;174.30;;;;;;;;;;5005389;28;20192;-55
2024/01/18 12:04:43;;;;;;;412.03;151.70;;;;;;;;;;5005218;28;20667;-55
2024/01/18 12:07:11;;;;;;;436.80;164.37;;;;;;;;;;5006228;28;20223;-55
2024/01/18 12:09:37;;;;;;;384.17;141.50;;;;;;;;;;5011894;28;20356;-55
2024/01/18 12:12:04;;;;;;;396.93;151.37;;;;;;;;;;5029466;28;20228;-55
2024/01/18 12:14:30;;;;;;;459.33;177.63;;;;;;;;;;5002814;28;20228;-55
2024/01/18 12:16:56;;;;;;;400.00;148.03;;;;;;;;;;5009643;28;20512;-55
2024/01/18 12:19:32;;;;;;;560.90;243.13;;;;;;;;;;5006440;28;20225;-55
2024/01/18 12:21:58;;;;;;;427.97;160.40;;;;;;;;;;4995055;28;20227;-55
2024/01/18 12:24:24;;;;;;;426.63;159.73;;;;;;;;;;5010047;28;20219;-55
2024/01/18 12:26:50;;;;;;;413.00;151.63;;;;;;;;;;5003680;28;20219;-55
2024/01/18 12:29:16;;;;;;;413.13;157.90;;;;;;;;;;4998347;28;20281;-54
2024/01/18 12:31:45;;;;;;;424.67;152.37;;;;;;;;;;4998952;28;20209;-55
2024/01/18 12:34:11;;;;;;;499.67;178.47;;;;;;;;;;5007109;28;20219;-56
2024/01/18 12:36:38;;;;;;;399.97;146.80;;;;;;;;;;4996930;28;20208;-56
2024/01/18 12:39:04;;;;;;;431.30;162.60;;;;;;;;;;5006956;28;20266;-55
2024/01/18 12:41:30;;;;;;;446.23;165.70;;;;;;;;;;4997427;28;20224;-55
2024/01/18 12:44:03;;;;;;;385.17;143.83;;;;;;;;;;5006498;28;20192;-55
2024/01/18 12:46:29;;;;;;;448.33;172.47;;;;;;;;;;5007585;28;20220;-56
2024/01/18 12:48:56;;;;;;;408.87;147.93;;;;;;;;;;4988161;28;20687;-56
2024/01/18 12:51:22;;;;;;;421.13;152.97;;;;;;;;;;5003496;28;20257;-56
2024/01/18 12:53:48;;;;;;;437.23;161.27;;;;;;;;;;5001711;28;20216;-55
2024/01/18 12:56:17;;;;;;;398.30;148.70;;;;;;;;;;5013058;28;20196;-55
2024/01/18 12:58:43;;;;;;;381.27;141.57;;;;;;;;;;5005178;28;20211;-56
2024/01/18 13:01:09;;;;;;;395.43;147.40;;;;;;;;;;5002506;28;20223;-56
2024/01/18 13:03:35;;;;;;;505.13;197.87;;;;;;;;;;4989986;28;20212;-56
2024/01/18 13:06:02;;;;;;;394.50;144.17;;;;;;;;;;4997586;28;20208;-56
2024/01/18 13:08:28;;;;;;;448.03;173.03;;;;;;;;;;4995280;28;20231;-55
2024/01/18 13:10:54;;;;;;;436.53;165.27;;;;;;;;;;5007336;28;20216;-55
2024/01/18 13:13:20;;;;;;;472.87;184.00;;;;;;;;;;4998945;28;20212;-55
2024/01/18 13:15:46;;;;;;;392.57;147.53;;;;;;;;;;4997428;28;20201;-56
2024/01/18 13:18:13;;;;;;;420.80;154.90;;;;;;;;;;5001415;28;20582;-56
2024/01/18 13:20:39;;;;;;;402.13;150.23;;;;;;;;;;4999368;28;20628;-56
2024/01/18 13:23:05;;;;;;;410.00;153.20;;;;;;;;;;5003072;28;20216;-55
2024/01/18 13:25:31;;;;;;;416.87;158.70;;;;;;;;;;5009689;28;20184;-55
2024/01/18 13:27:57;;;;;;;390.73;144.57;;;;;;;;;;4992828;28;20220;-55
2024/01/18 13:30:23;;;;;;;443.23;165.60;;;;;;;;;;5001248;28;20245;-55
2024/01/18 13:32:50;;;;;;;400.93;143.80;;;;;;;;;;5004781;28;20266;-55
2024/01/18 13:35:16;;;;;;;422.33;159.00;;;;;;;;;;5006675;28;20271;-55
2024/01/18 13:37:42;;;;;;;495.30;199.77;;;;;;;;;;4995577;28;20587;-55
2024/01/18 13:40:08;;;;;;;380.47;141.23;;;;;;;;;;5002602;28;20219;-55
2024/01/18 13:42:35;;;;;;;429.33;164.43;;;;;;;;;;4993982;28;20224;-55
2024/01/18 13:45:01;;;;;;;438.97;169.70;;;;;;;;;;5005711;28;20215;-56
2024/01/18 13:47:26;;;;;;;390.73;147.60;;;;;;;;;;4995539;28;20213;-56
2024/01/18 13:49:52;;;;;;;384.63;142.60;;;;;;;;;;5003356;28;20192;-55
2024/01/18 13:52:20;;;;;;;419.23;152.30;;;;;;;;;;4998612;28;20225;-55